Time;durP1;ratioP1;P1;durP2;ratioP2;P2;SDS_P1;SDS_P2;PMS_P1;PMS_P2;Temp;Humidity;BMP_temperature;BMP_pressure;BME280_temperature;BME280_humidity;BME280_pressure;Samples;Min_cycle;Max_cycle;Signal;HPM_P1;HPM_P2
2020/12/19 00:00:46;;;;;;;15.02;9.80;;;4.60;99.90;;;;;;7040010;27;20431;-64
2020/12/19 00:04:07;;;;;;;17.52;10.63;;;4.70;99.90;;;;;;7043045;27;20409;-64
2020/12/19 00:07:28;;;;;;;13.40;9.63;;;4.80;99.90;;;;;;7073465;27;20412;-66
2020/12/19 00:10:49;;;;;;;14.82;9.52;;;4.80;99.90;;;;;;7050795;27;20465;-64
2020/12/19 00:14:10;;;;;;;16.13;10.43;;;4.70;99.90;;;;;;7039026;27;20415;-65
2020/12/19 00:17:31;;;;;;;16.85;10.80;;;4.80;99.90;;;;;;7026024;27;20398;-64
2020/12/19 00:20:51;;;;;;;14.47;10.03;;;4.80;99.90;;;;;;7048760;27;20436;-65
2020/12/19 00:24:12;;;;;;;16.03;9.97;;;4.80;99.90;;;;;;7060616;27;20920;-65
2020/12/19 00:27:33;;;;;;;13.95;9.90;;;4.70;99.90;;;;;;7036948;27;20406;-66
2020/12/19 00:30:54;;;;;;;19.67;10.50;;;4.60;99.90;;;;;;7044402;27;20431;-65
2020/12/19 00:34:16;;;;;;;16.30;10.88;;;4.70;99.90;;;;;;7037471;27;20398;-65
2020/12/19 00:37:44;;;;;;;16.02;10.70;;;4.70;99.90;;;;;;7061673;27;20409;-66
2020/12/19 00:41:04;;;;;;;15.65;10.70;;;4.70;99.90;;;;;;7079419;27;20449;-65
2020/12/19 00:44:25;;;;;;;17.40;11.30;;;4.70;99.90;;;;;;7070000;27;20402;-65
2020/12/19 00:47:46;;;;;;;18.05;11.13;;;4.70;99.90;;;;;;7041671;27;20460;-66
2020/12/19 00:51:21;;;;;;;16.47;11.30;;;4.60;99.90;;;;;;7057060;27;20468;-65
2020/12/19 00:54:41;;;;;;;17.67;11.18;;;4.70;99.90;;;;;;7028495;27;20472;-65
2020/12/19 00:58:02;;;;;;;16.38;11.43;;;4.60;99.90;;;;;;7034185;27;20393;-66
2020/12/19 01:01:24;;;;;;;17.63;11.50;;;4.60;99.90;;;;;;7034834;27;20406;-66
2020/12/19 01:04:45;;;;;;;17.38;11.60;;;4.60;99.90;;;;;;7047137;27;20399;-65
2020/12/19 01:08:07;;;;;;;16.90;11.50;;;4.60;99.90;;;;;;7039383;27;20418;-65
2020/12/19 01:11:29;;;;;;;16.40;12.10;;;4.70;99.90;;;;;;7062580;27;20398;-65
2020/12/19 01:14:50;;;;;;;19.30;11.27;;;4.60;99.90;;;;;;7062946;27;20416;-65
2020/12/19 01:18:11;;;;;;;17.67;11.80;;;4.50;99.90;;;;;;7043177;27;20400;-65
2020/12/19 01:21:32;;;;;;;17.17;11.85;;;4.50;99.90;;;;;;7043326;27;20408;-65
2020/12/19 01:24:53;;;;;;;18.30;12.23;;;4.40;99.90;;;;;;7034210;27;20401;-65
2020/12/19 01:28:14;;;;;;;20.02;12.50;;;4.50;99.90;;;;;;7055253;27;20835;-64
2020/12/19 01:31:35;;;;;;;20.43;12.80;;;4.50;99.90;;;;;;7033532;27;20436;-64
2020/12/19 01:34:56;;;;;;;19.10;13.15;;;4.40;99.90;;;;;;7068048;27;20804;-64
2020/12/19 01:38:16;;;;;;;20.13;13.50;;;4.40;99.90;;;;;;7048052;27;20489;-64
2020/12/19 01:41:37;;;;;;;19.63;13.20;;;4.40;99.90;;;;;;7060052;27;20431;-64
2020/12/19 01:44:58;;;;;;;19.50;13.43;;;4.40;99.90;;;;;;7038141;27;20551;-65
2020/12/19 01:48:23;;;;;;;21.37;13.20;;;4.40;99.90;;;;;;7054947;27;20410;-65
2020/12/19 01:51:47;;;;;;;20.05;13.70;;;4.40;99.90;;;;;;7055303;27;20429;-65
2020/12/19 01:55:07;;;;;;;20.98;13.70;;;4.30;99.90;;;;;;7033319;27;20406;-64
2020/12/19 01:58:28;;;;;;;19.97;13.77;;;4.30;99.90;;;;;;7062105;27;20387;-65
2020/12/19 02:01:50;;;;;;;23.67;14.60;;;4.30;99.90;;;;;;7081617;27;20405;-64
2020/12/19 02:05:11;;;;;;;22.58;14.60;;;4.30;99.90;;;;;;7034489;27;20386;-63
2020/12/19 02:08:32;;;;;;;23.50;14.30;;;4.30;99.90;;;;;;7041443;27;20455;-64
2020/12/19 02:11:52;;;;;;;20.08;14.05;;;4.20;99.90;;;;;;7039194;27;20452;-64
2020/12/19 02:15:13;;;;;;;22.13;14.40;;;4.20;99.90;;;;;;7034605;27;20473;-64
2020/12/19 02:18:34;;;;;;;21.80;14.30;;;4.30;99.90;;;;;;7045650;27;20410;-64
2020/12/19 02:21:56;;;;;;;21.95;14.57;;;4.30;99.90;;;;;;7045146;27;20406;-64
2020/12/19 02:25:16;;;;;;;25.10;15.20;;;4.30;99.90;;;;;;7060279;27;20728;-64
2020/12/19 02:28:37;;;;;;;23.30;15.27;;;4.30;99.90;;;;;;7061106;27;20401;-64
2020/12/19 02:32:01;;;;;;;25.00;16.27;;;4.40;99.90;;;;;;7050293;27;20437;-64
2020/12/19 02:35:22;;;;;;;25.15;15.02;;;4.30;99.90;;;;;;7043556;27;20413;-64
2020/12/19 02:38:43;;;;;;;23.83;15.95;;;4.20;99.90;;;;;;7054924;27;20441;-64
2020/12/19 02:42:03;;;;;;;25.40;15.20;;;4.30;99.90;;;;;;7045074;27;20427;-64
2020/12/19 02:45:24;;;;;;;26.20;16.10;;;4.30;99.90;;;;;;7043723;27;20515;-65
2020/12/19 02:48:45;;;;;;;25.87;15.83;;;4.30;99.90;;;;;;7040749;27;20815;-65
2020/12/19 02:52:06;;;;;;;24.77;15.48;;;4.30;99.90;;;;;;7046142;27;20392;-65
2020/12/19 02:55:27;;;;;;;23.40;15.48;;;4.30;99.90;;;;;;7073127;27;20973;-65
2020/12/19 02:58:47;;;;;;;25.33;15.60;;;4.20;99.90;;;;;;7046420;27;20419;-65
2020/12/19 03:02:08;;;;;;;25.50;16.00;;;4.30;99.90;;;;;;7047481;27;20923;-65
2020/12/19 03:05:29;;;;;;;25.53;16.40;;;4.30;99.90;;;;;;7043927;27;20792;-65
2020/12/19 03:08:50;;;;;;;26.65;16.48;;;4.30;99.90;;;;;;7081385;27;20803;-64
2020/12/19 03:12:11;;;;;;;27.15;16.33;;;4.20;99.90;;;;;;7040279;27;20406;-65
2020/12/19 03:15:32;;;;;;;24.00;15.55;;;4.20;99.90;;;;;;7048320;27;20398;-65
2020/12/19 03:18:53;;;;;;;26.35;16.88;;;4.10;99.90;;;;;;7059200;27;20833;-65
2020/12/19 03:22:14;;;;;;;27.05;16.45;;;4.10;99.90;;;;;;7048392;27;20842;-65
2020/12/19 03:25:34;;;;;;;25.87;16.97;;;4.10;99.90;;;;;;7033293;27;20410;-65
2020/12/19 03:28:55;;;;;;;26.87;16.93;;;4.10;99.90;;;;;;7031423;27;20414;-65
2020/12/19 03:32:17;;;;;;;30.38;18.00;;;4.30;99.90;;;;;;7041793;27;20963;-65
2020/12/19 03:35:39;;;;;;;25.83;17.07;;;4.20;99.90;;;;;;7062000;27;20420;-64
2020/12/19 03:39:00;;;;;;;25.10;16.35;;;4.20;99.90;;;;;;7041293;27;20482;-64
2020/12/19 03:42:21;;;;;;;28.00;16.33;;;4.10;99.90;;;;;;7039650;27;20394;-64
2020/12/19 03:45:42;;;;;;;28.08;17.20;;;4.00;99.90;;;;;;7078536;27;20402;-65
2020/12/19 03:49:03;;;;;;;27.60;16.90;;;4.10;99.90;;;;;;7023778;27;20824;-65
2020/12/19 03:52:23;;;;;;;27.00;16.47;;;4.10;99.90;;;;;;7052593;27;20383;-63
2020/12/19 03:55:44;;;;;;;29.05;16.83;;;4.00;99.90;;;;;;7037654;27;20394;-65
2020/12/19 03:59:05;;;;;;;26.48;16.52;;;4.10;99.90;;;;;;7040838;27;20403;-65
2020/12/19 04:02:26;;;;;;;26.95;16.50;;;4.00;99.90;;;;;;7034357;27;20486;-65
2020/12/19 04:05:47;;;;;;;30.10;17.90;;;4.10;99.90;;;;;;7044015;27;20386;-64
2020/12/19 04:09:07;;;;;;;26.77;16.30;;;4.10;99.90;;;;;;7038538;27;21069;-64
2020/12/19 04:12:28;;;;;;;28.65;16.80;;;4.20;99.90;;;;;;7042785;27;20402;-65
2020/12/19 04:15:49;;;;;;;28.50;17.33;;;4.20;99.90;;;;;;7060296;27;20500;-65
2020/12/19 04:19:10;;;;;;;27.97;16.90;;;4.20;99.90;;;;;;7043798;27;20394;-65
2020/12/19 04:22:30;;;;;;;30.20;16.70;;;4.20;99.90;;;;;;7044393;27;20423;-64
2020/12/19 04:25:51;;;;;;;25.85;16.58;;;4.20;99.90;;;;;;7043980;27;20397;-65
2020/12/19 04:29:12;;;;;;;28.23;17.17;;;4.10;99.90;;;;;;7040177;27;20858;-64
2020/12/19 04:32:34;;;;;;;31.00;17.37;;;4.20;99.90;;;;;;7061449;27;20388;-64
2020/12/19 04:35:55;;;;;;;28.98;17.38;;;4.20;99.90;;;;;;7061012;27;20856;-65
2020/12/19 04:39:16;;;;;;;28.48;16.80;;;4.10;99.90;;;;;;7043465;27;20914;-65
2020/12/19 04:42:37;;;;;;;28.05;17.08;;;4.20;99.90;;;;;;7042819;27;20468;-65
2020/12/19 04:45:58;;;;;;;27.17;16.65;;;4.30;99.90;;;;;;7025761;27;20927;-66
2020/12/19 04:49:20;;;;;;;26.08;16.13;;;4.30;99.90;;;;;;7031497;27;20388;-65
2020/12/19 04:52:41;;;;;;;24.38;15.75;;;4.20;99.90;;;;;;7048973;27;20399;-65
2020/12/19 04:56:08;;;;;;;27.00;16.55;;;4.20;99.90;;;;;;7030419;27;20387;-65
2020/12/19 04:59:29;;;;;;;27.98;16.70;;;4.20;99.90;;;;;;7025549;27;20411;-64
2020/12/19 05:02:53;;;;;;;27.15;16.83;;;4.20;99.90;;;;;;7019955;27;20464;-64
2020/12/19 05:06:17;;;;;;;24.55;15.50;;;4.20;99.90;;;;;;7042064;27;20748;-64
2020/12/19 05:09:42;;;;;;;26.13;15.57;;;4.10;99.90;;;;;;7038273;27;20415;-64
2020/12/19 05:13:02;;;;;;;25.73;15.73;;;4.10;99.90;;;;;;7040225;28;20419;-64
2020/12/19 05:16:23;;;;;;;24.73;15.75;;;4.20;99.90;;;;;;7038043;27;20463;-64
2020/12/19 05:19:44;;;;;;;23.67;14.63;;;4.10;99.90;;;;;;7050050;27;20400;-64
2020/12/19 05:23:08;;;;;;;26.40;15.37;;;4.00;99.90;;;;;;7023857;27;20404;-65
2020/12/19 05:26:30;;;;;;;24.95;15.15;;;4.20;99.90;;;;;;7056437;27;20400;-65
2020/12/19 05:29:51;;;;;;;24.05;14.95;;;4.10;99.90;;;;;;7039889;27;20411;-64
2020/12/19 05:33:11;;;;;;;23.88;15.20;;;4.10;99.90;;;;;;7020800;27;20430;-64
2020/12/19 05:36:37;;;;;;;23.50;14.40;;;4.10;99.90;;;;;;7052096;27;20486;-64
2020/12/19 05:39:57;;;;;;;23.67;14.85;;;4.10;99.90;;;;;;7037795;27;20911;-64
2020/12/19 05:43:21;;;;;;;21.80;14.10;;;4.10;99.90;;;;;;7039539;27;20400;-64
2020/12/19 05:46:42;;;;;;;22.07;14.40;;;4.00;99.90;;;;;;7032483;27;20401;-64
2020/12/19 05:50:03;;;;;;;22.00;14.20;;;4.00;99.90;;;;;;7030781;27;20878;-64
2020/12/19 05:53:26;;;;;;;23.23;14.07;;;4.00;99.90;;;;;;7059774;27;20394;-64
2020/12/19 05:56:51;;;;;;;22.00;14.25;;;3.90;99.90;;;;;;7055838;27;20390;-64
2020/12/19 06:00:16;;;;;;;21.10;13.60;;;3.90;99.90;;;;;;7054837;27;20397;-64
2020/12/19 06:03:39;;;;;;;21.15;13.43;;;3.90;99.90;;;;;;7053208;27;20410;-64
2020/12/19 06:07:00;;;;;;;22.10;13.95;;;3.90;99.90;;;;;;7038465;27;20409;-64
2020/12/19 06:10:21;;;;;;;20.98;13.10;;;4.00;99.90;;;;;;7028853;27;20473;-65
2020/12/19 06:13:48;;;;;;;22.30;14.00;;;4.00;99.90;;;;;;7034523;27;20393;-65
2020/12/19 06:17:16;;;;;;;21.20;13.60;;;4.00;99.90;;;;;;7049059;27;20787;-65
2020/12/19 06:20:37;;;;;;;20.13;13.13;;;4.00;99.90;;;;;;7028543;27;20926;-64
2020/12/19 06:23:58;;;;;;;22.58;13.60;;;3.90;99.90;;;;;;7055818;27;20393;-65
2020/12/19 06:27:25;;;;;;;21.43;13.23;;;3.80;99.90;;;;;;7040435;27;20405;-65
2020/12/19 06:30:46;;;;;;;20.88;13.00;;;3.80;99.90;;;;;;7039082;27;20415;-64
2020/12/19 06:34:07;;;;;;;19.80;13.00;;;3.80;99.90;;;;;;7038356;27;20392;-63
2020/12/19 06:37:29;;;;;;;21.65;13.73;;;3.80;99.90;;;;;;7057389;27;20409;-64
2020/12/19 06:40:50;;;;;;;20.90;14.05;;;3.70;99.90;;;;;;7039169;27;20426;-65
2020/12/19 06:44:26;;;;;;;19.63;13.13;;;3.90;99.90;;;;;;7040112;27;20382;-65
2020/12/19 06:47:47;;;;;;;21.30;13.52;;;3.80;99.90;;;;;;7029614;27;20827;-65
2020/12/19 06:51:08;;;;;;;21.55;13.60;;;3.70;99.90;;;;;;7061638;27;20399;-65
2020/12/19 06:54:40;;;;;;;23.42;14.43;;;3.70;99.90;;;;;;7045574;27;20394;-65
2020/12/19 06:58:01;;;;;;;20.25;13.70;;;3.60;99.90;;;;;;7058941;27;20387;-63
2020/12/19 07:01:27;;;;;;;22.60;14.80;;;3.50;99.90;;;;;;7022839;27;21006;-65
2020/12/19 07:04:49;;;;;;;21.40;13.98;;;3.50;99.90;;;;;;7041221;27;20408;-64
2020/12/19 07:08:21;;;;;;;23.42;13.88;;;3.50;99.90;;;;;;7033699;27;20471;-64
2020/12/19 07:11:42;;;;;;;20.73;13.75;;;3.30;99.90;;;;;;7015508;27;20902;-64
2020/12/19 07:15:27;;;;;;;23.20;14.57;;;3.30;99.90;;;;;;7036116;27;20420;-65
2020/12/19 07:18:48;;;;;;;22.48;14.63;;;3.30;99.90;;;;;;7025504;27;20402;-66
2020/12/19 07:22:09;;;;;;;22.37;14.97;;;3.30;99.90;;;;;;7023834;27;20408;-65
2020/12/19 07:25:33;;;;;;;22.42;14.80;;;3.30;99.90;;;;;;7030143;27;20406;-65
2020/12/19 07:28:53;;;;;;;23.17;15.38;;;3.20;99.90;;;;;;7030300;27;20404;-65
2020/12/19 07:32:14;;;;;;;21.73;14.55;;;3.20;99.90;;;;;;7038008;27;20444;-64
2020/12/19 07:35:36;;;;;;;21.02;14.20;;;3.20;99.90;;;;;;7068515;27;20506;-65
2020/12/19 07:39:00;;;;;;;23.40;14.98;;;3.10;99.90;;;;;;7050156;27;20414;-64
2020/12/19 07:42:21;;;;;;;22.27;15.00;;;3.00;99.90;;;;;;7039506;27;20410;-64
2020/12/19 07:45:42;;;;;;;22.05;14.90;;;2.90;99.90;;;;;;7041993;27;20414;-63
2020/12/19 07:49:03;;;;;;;21.25;14.70;;;2.90;99.90;;;;;;7046514;27;20409;-65
2020/12/19 07:52:25;;;;;;;21.73;14.80;;;2.80;99.90;;;;;;7033532;27;20387;-65
2020/12/19 07:55:51;;;;;;;21.38;14.65;;;2.80;99.90;;;;;;7026376;27;20497;-64
2020/12/19 07:59:13;;;;;;;23.98;15.70;;;2.70;99.90;;;;;;7043806;27;20406;-65
2020/12/19 08:02:37;;;;;;;20.48;14.93;;;2.70;99.90;;;;;;7034988;27;20401;-65
2020/12/19 08:05:59;;;;;;;22.23;14.82;;;2.70;99.90;;;;;;7013738;27;20451;-64
2020/12/19 08:09:20;;;;;;;23.17;15.27;;;2.70;99.90;;;;;;7055058;27;20477;-64
2020/12/19 08:12:42;;;;;;;21.73;15.13;;;2.70;99.90;;;;;;7016017;27;20430;-64
2020/12/19 08:16:03;;;;;;;22.30;14.85;;;2.60;99.90;;;;;;7058542;27;20388;-65
2020/12/19 08:19:34;;;;;;;20.67;14.30;;;2.70;99.90;;;;;;7036335;27;20482;-63
2020/12/19 08:22:56;;;;;;;20.07;13.83;;;2.60;99.90;;;;;;7027905;27;20406;-65
2020/12/19 08:26:17;;;;;;;20.05;14.10;;;2.70;99.90;;;;;;7041490;27;20414;-64
2020/12/19 08:29:38;;;;;;;18.75;13.30;;;2.70;99.90;;;;;;7043772;27;20489;-64
2020/12/19 08:33:04;;;;;;;17.45;12.50;;;2.70;99.90;;;;;;7027510;27;20830;-64
2020/12/19 08:36:25;;;;;;;20.65;13.20;;;2.50;99.90;;;;;;7021971;27;20430;-63
2020/12/19 08:40:08;;;;;;;17.50;12.60;;;2.50;99.90;;;;;;7066851;27;20393;-65
2020/12/19 08:43:34;;;;;;;18.83;13.50;;;2.60;99.90;;;;;;7023503;27;20405;-65
2020/12/19 08:47:04;;;;;;;21.05;14.45;;;2.70;99.90;;;;;;7047447;27;21074;-65
2020/12/19 08:50:29;;;;;;;23.20;15.05;;;2.90;99.90;;;;;;7033284;27;20482;-65
2020/12/19 08:53:50;;;;;;;21.70;15.00;;;3.20;99.90;;;;;;7041043;27;20404;-64
2020/12/19 08:57:29;;;;;;;22.13;15.20;;;3.50;99.90;;;;;;7069908;27;20490;-65
2020/12/19 09:00:51;;;;;;;20.33;14.48;;;3.80;99.90;;;;;;7048001;27;20491;-65
2020/12/19 09:04:13;;;;;;;19.90;14.75;;;4.00;99.90;;;;;;7025708;27;20871;-65
2020/12/19 09:07:34;;;;;;;20.80;14.10;;;4.50;99.90;;;;;;7056919;27;20463;-65
2020/12/19 09:10:55;;;;;;;21.83;14.85;;;5.00;99.90;;;;;;7033686;27;20419;-65
2020/12/19 09:14:17;;;;;;;20.95;14.40;;;5.30;99.90;;;;;;7026656;27;20888;-65
2020/12/19 09:17:37;;;;;;;21.45;14.18;;;5.40;99.90;;;;;;7034251;27;20396;-65
2020/12/19 09:21:01;;;;;;;20.20;13.73;;;5.70;99.90;;;;;;7034604;27;20838;-65
2020/12/19 09:24:23;;;;;;;19.05;14.30;;;6.20;99.90;;;;;;7038580;27;20962;-65
2020/12/19 09:27:43;;;;;;;19.63;13.52;;;6.50;99.90;;;;;;7040604;27;20412;-65
2020/12/19 09:31:04;;;;;;;20.17;14.00;;;7.00;99.90;;;;;;7033948;27;20516;-65
2020/12/19 09:34:25;;;;;;;17.93;13.10;;;7.30;99.90;;;;;;7044799;27;20402;-65
2020/12/19 09:37:46;;;;;;;18.20;13.23;;;7.70;99.90;;;;;;7033062;27;20394;-65
2020/12/19 09:41:07;;;;;;;20.00;13.32;;;8.20;99.90;;;;;;7035322;27;20398;-65
2020/12/19 09:44:28;;;;;;;16.58;12.80;;;8.70;99.90;;;;;;7044878;27;20979;-65
2020/12/19 09:47:52;;;;;;;16.20;12.43;;;9.10;99.90;;;;;;7068541;27;20420;-65
2020/12/19 09:51:13;;;;;;;16.55;12.95;;;9.70;99.90;;;;;;7076086;27;20412;-65
2020/12/19 09:54:33;;;;;;;16.50;12.90;;;10.00;99.90;;;;;;7035373;27;20908;-65
2020/12/19 09:57:55;;;;;;;14.97;12.57;;;10.40;99.90;;;;;;7050049;27;20449;-65
2020/12/19 10:01:16;;;;;;;15.40;12.60;;;10.50;99.90;;;;;;7044406;27;20401;-65
2020/12/19 10:04:36;;;;;;;14.30;12.50;;;10.90;99.90;;;;;;7046193;27;20407;-66
2020/12/19 10:07:57;;;;;;;15.02;12.00;;;11.20;99.90;;;;;;7079539;27;20413;-64
2020/12/19 10:11:22;;;;;;;15.13;12.67;;;11.60;99.90;;;;;;7034034;27;20504;-65
2020/12/19 10:14:44;;;;;;;14.40;12.02;;;11.80;99.90;;;;;;7058599;27;20943;-65
2020/12/19 10:18:06;;;;;;;14.50;11.90;;;11.40;99.90;;;;;;7040296;27;20439;-66
2020/12/19 10:21:27;;;;;;;15.35;12.30;;;11.90;99.90;;;;;;7048856;27;20386;-66
2020/12/19 10:24:47;;;;;;;14.70;12.10;;;12.30;99.90;;;;;;7036310;27;20398;-65
2020/12/19 10:28:08;;;;;;;13.63;11.90;;;12.70;99.90;;;;;;7040559;27;20779;-66
2020/12/19 10:31:29;;;;;;;15.45;12.60;;;12.50;99.90;;;;;;7072620;27;20781;-66
2020/12/19 10:34:50;;;;;;;15.00;12.00;;;12.80;99.90;;;;;;7040175;27;20403;-66
2020/12/19 10:38:11;;;;;;;13.90;11.50;;;13.10;99.90;;;;;;7030756;27;20405;-65
2020/12/19 10:41:32;;;;;;;14.07;11.70;;;13.50;99.90;;;;;;7031703;27;20403;-65
2020/12/19 10:44:53;;;;;;;14.35;11.00;;;13.60;99.90;;;;;;7036649;27;20923;-66
2020/12/19 10:48:14;;;;;;;14.23;11.80;;;14.30;99.90;;;;;;7047365;27;20473;-66
2020/12/19 10:51:34;;;;;;;13.67;11.20;;;16.00;99.90;;;;;;7033130;27;20750;-64
2020/12/19 10:54:55;;;;;;;13.82;11.55;;;17.30;99.90;;;;;;7049774;27;20416;-68
2020/12/19 10:58:17;;;;;;;12.60;10.70;;;17.10;99.90;;;;;;7041248;27;20460;-68
2020/12/19 11:01:38;;;;;;;14.40;12.77;;;17.80;99.90;;;;;;7047557;27;20396;-68
2020/12/19 11:04:58;;;;;;;15.10;11.70;;;18.30;99.90;;;;;;7034443;27;20972;-69
2020/12/19 11:08:19;;;;;;;13.50;11.25;;;18.10;99.90;;;;;;7044128;27;20428;-68
2020/12/19 11:11:40;;;;;;;13.60;11.30;;;18.60;99.90;;;;;;7068441;27;20478;-68
2020/12/19 11:15:01;;;;;;;13.35;11.60;;;17.90;99.90;;;;;;7053527;27;20389;-68
2020/12/19 11:18:22;;;;;;;13.85;11.73;;;17.20;99.90;;;;;;7037098;27;20948;-68
2020/12/19 11:21:44;;;;;;;13.57;11.55;;;16.50;99.90;;;;;;7027763;27;20389;-68
2020/12/19 11:25:06;;;;;;;14.38;11.40;;;17.00;99.90;;;;;;7047248;27;20411;-68
2020/12/19 11:28:27;;;;;;;13.52;11.10;;;18.10;99.90;;;;;;7060612;27;20442;-67
2020/12/19 11:31:48;;;;;;;14.25;12.52;;;17.60;99.90;;;;;;7028635;27;21134;-66
2020/12/19 11:35:09;;;;;;;14.48;12.50;;;17.70;99.90;;;;;;7035187;27;20389;-66
2020/12/19 11:38:30;;;;;;;15.07;12.70;;;17.90;99.90;;;;;;7020932;27;20420;-66
2020/12/19 11:41:52;;;;;;;15.15;12.48;;;18.00;99.90;;;;;;7039403;27;20407;-67
2020/12/19 11:45:13;;;;;;;14.87;11.77;;;18.90;99.90;;;;;;7025748;27;20390;-66
2020/12/19 11:48:33;;;;;;;14.32;12.10;;;17.60;99.90;;;;;;7023253;27;20473;-66
2020/12/19 11:51:54;;;;;;;14.68;11.90;;;17.60;99.90;;;;;;7035424;27;20475;-66
2020/12/19 11:55:15;;;;;;;14.03;11.50;;;17.20;99.90;;;;;;7016622;27;20392;-67
2020/12/19 11:58:36;;;;;;;13.80;11.30;;;17.50;99.90;;;;;;7020702;27;20966;-67
2020/12/19 12:02:03;;;;;;;14.23;11.20;;;17.60;99.90;;;;;;7043239;27;20399;-66
2020/12/19 12:05:24;;;;;;;13.55;11.10;;;16.70;99.90;;;;;;7030889;27;20825;-66
2020/12/19 12:08:45;;;;;;;14.52;10.60;;;16.40;99.90;;;;;;7023163;27;20480;-64
2020/12/19 12:12:06;;;;;;;13.47;10.83;;;15.80;99.90;;;;;;7052329;27;20396;-67
2020/12/19 12:15:26;;;;;;;12.90;10.30;;;15.10;99.90;;;;;;7034915;27;20495;-68
2020/12/19 12:18:47;;;;;;;14.30;10.90;;;16.90;99.90;;;;;;7016136;27;20404;-67
2020/12/19 12:22:08;;;;;;;13.40;10.90;;;17.90;99.90;;;;;;7033932;27;20398;-70
2020/12/19 12:25:29;;;;;;;12.88;10.10;;;19.60;99.90;;;;;;7022341;27;20402;-66
2020/12/19 12:28:50;;;;;;;12.20;10.57;;;20.10;99.90;;;;;;7058496;27;20420;-66
2020/12/19 12:32:11;;;;;;;12.63;10.20;;;20.20;99.90;;;;;;7019176;27;20402;-67
2020/12/19 12:35:31;;;;;;;11.00;9.60;;;20.90;99.90;;;;;;7040023;27;20423;-67
2020/12/19 12:38:53;;;;;;;12.48;10.40;;;20.90;99.90;;;;;;7041144;27;20427;-66
2020/12/19 12:42:20;;;;;;;12.70;10.82;;;20.80;99.90;;;;;;7056059;27;20953;-66
2020/12/19 12:45:41;;;;;;;12.40;10.40;;;20.30;99.90;;;;;;7035538;27;20419;-66
2020/12/19 12:49:01;;;;;;;13.13;10.55;;;19.50;99.90;;;;;;7040252;27;20495;-66
2020/12/19 12:52:22;;;;;;;13.57;10.90;;;18.20;99.90;;;;;;7048007;27;21121;-66
2020/12/19 12:55:43;;;;;;;13.57;11.68;;;16.00;99.90;;;;;;7023343;27;20385;-66
2020/12/19 12:59:04;;;;;;;13.73;10.98;;;14.20;99.90;;;;;;7025203;27;20396;-65
2020/12/19 13:02:25;;;;;;;14.50;11.30;;;14.40;99.90;;;;;;7057734;27;20414;-66
2020/12/19 13:05:46;;;;;;;11.90;9.77;;;15.20;99.90;;;;;;7048224;27;20454;-66
2020/12/19 13:09:07;;;;;;;13.80;10.90;;;15.80;99.90;;;;;;7041933;27;20473;-66
2020/12/19 13:12:27;;;;;;;12.97;10.30;;;14.90;99.90;;;;;;7033498;27;20402;-66
2020/12/19 13:15:48;;;;;;;12.80;9.90;;;14.90;99.90;;;;;;7049250;27;20398;-66
2020/12/19 13:19:09;;;;;;;11.40;9.13;;;16.20;99.90;;;;;;7042376;27;20400;-66
2020/12/19 13:22:30;;;;;;;12.02;9.88;;;16.90;99.90;;;;;;7021407;27;20400;-65
2020/12/19 13:25:51;;;;;;;11.90;10.40;;;17.30;99.90;;;;;;7020466;27;20403;-65
2020/12/19 13:29:12;;;;;;;13.80;10.57;;;15.80;99.90;;;;;;7020678;27;20402;-65
2020/12/19 13:32:34;;;;;;;12.57;10.57;;;15.30;99.90;;;;;;7065846;27;20434;-66
2020/12/19 13:35:55;;;;;;;13.32;10.25;;;14.40;99.90;;;;;;7021439;27;20412;-66
2020/12/19 13:39:16;;;;;;;12.77;10.25;;;14.10;99.90;;;;;;7049246;27;20430;-65
2020/12/19 13:42:38;;;;;;;12.60;10.38;;;13.30;99.90;;;;;;7019297;27;21126;-66
2020/12/19 13:45:59;;;;;;;13.48;10.88;;;12.00;99.90;;;;;;7022087;27;20408;-65
2020/12/19 13:49:20;;;;;;;13.80;10.63;;;11.10;99.90;;;;;;7029272;27;20410;-65
2020/12/19 13:52:40;;;;;;;14.27;10.83;;;10.90;99.90;;;;;;7062605;27;20454;-69
2020/12/19 13:56:01;;;;;;;14.10;10.75;;;10.40;99.90;;;;;;7043004;27;20385;-67
2020/12/19 13:59:22;;;;;;;14.32;10.73;;;9.70;99.90;;;;;;7046337;27;20437;-67
2020/12/19 14:02:43;;;;;;;13.87;10.77;;;9.60;99.90;;;;;;7054166;27;20879;-67
2020/12/19 14:06:04;;;;;;;15.38;11.50;;;9.50;99.90;;;;;;7035256;27;20935;-67
2020/12/19 14:09:25;;;;;;;14.88;10.63;;;9.50;99.90;;;;;;7054695;27;20448;-66
2020/12/19 14:12:45;;;;;;;14.80;10.93;;;9.40;99.90;;;;;;7043217;27;20428;-66
2020/12/19 14:16:06;;;;;;;14.03;10.80;;;9.50;99.90;;;;;;7052298;27;20386;-66
2020/12/19 14:19:27;;;;;;;15.30;10.90;;;9.40;99.90;;;;;;7020156;27;20400;-67
2020/12/19 14:22:48;;;;;;;15.18;11.10;;;9.20;99.90;;;;;;7021163;27;20493;-66
2020/12/19 14:26:09;;;;;;;14.80;11.40;;;9.00;99.90;;;;;;7051132;27;20382;-65
2020/12/19 14:29:29;;;;;;;14.98;10.82;;;8.70;99.90;;;;;;7042721;27;20511;-65
2020/12/19 14:32:51;;;;;;;15.23;10.45;;;8.70;99.90;;;;;;7059737;27;20434;-66
2020/12/19 14:36:17;;;;;;;14.03;11.10;;;8.60;99.90;;;;;;7040684;27;20398;-67
2020/12/19 14:39:38;;;;;;;14.63;10.50;;;8.50;99.90;;;;;;7051834;27;20413;-66
2020/12/19 14:42:59;;;;;;;14.40;10.38;;;8.30;99.90;;;;;;7044434;27;20387;-67
2020/12/19 14:46:21;;;;;;;14.38;10.70;;;8.20;99.90;;;;;;7024341;27;20439;-66
2020/12/19 14:49:41;;;;;;;14.20;10.40;;;8.20;99.90;;;;;;7026865;27;20414;-66
2020/12/19 14:53:02;;;;;;;14.68;10.35;;;8.10;99.90;;;;;;7039231;27;20424;-68
2020/12/19 14:56:23;;;;;;;14.73;10.20;;;8.10;99.90;;;;;;7060161;27;20451;-66
2020/12/19 14:59:44;;;;;;;15.05;10.73;;;8.10;99.90;;;;;;7024075;27;20884;-66
2020/12/19 15:03:05;;;;;;;15.18;10.75;;;8.00;99.90;;;;;;7052572;27;20405;-67
2020/12/19 15:06:26;;;;;;;13.97;10.50;;;8.00;99.90;;;;;;7029382;27;20402;-66
2020/12/19 15:09:47;;;;;;;14.15;10.40;;;8.00;99.90;;;;;;7031703;27;20428;-66
2020/12/19 15:13:07;;;;;;;15.98;10.68;;;8.00;99.90;;;;;;7043945;27;20398;-66
2020/12/19 15:16:28;;;;;;;15.03;11.00;;;8.00;99.90;;;;;;7041667;27;20397;-66
2020/12/19 15:19:49;;;;;;;15.60;11.03;;;8.10;99.90;;;;;;7044001;27;20391;-65
2020/12/19 15:23:10;;;;;;;15.40;11.05;;;8.10;99.90;;;;;;7033369;27;20395;-67
2020/12/19 15:26:31;;;;;;;15.55;11.10;;;8.10;99.90;;;;;;7025763;27;20429;-66
2020/12/19 15:29:52;;;;;;;13.90;10.10;;;8.00;99.90;;;;;;7037432;27;20402;-68
2020/12/19 15:33:12;;;;;;;15.20;10.50;;;8.10;99.90;;;;;;7043794;27;20456;-66
2020/12/19 15:36:33;;;;;;;13.35;10.15;;;8.00;99.90;;;;;;7052520;27;20398;-67
2020/12/19 15:39:54;;;;;;;14.07;10.00;;;7.90;99.90;;;;;;7050027;27;20404;-66
2020/12/19 15:43:16;;;;;;;15.27;10.90;;;7.80;99.90;;;;;;7071963;27;20395;-67
2020/12/19 15:46:37;;;;;;;20.77;13.32;;;7.90;99.90;;;;;;7050387;27;20464;-66
2020/12/19 15:49:58;;;;;;;15.38;11.40;;;7.90;99.90;;;;;;7003349;27;20473;-67
2020/12/19 15:53:19;;;;;;;14.23;10.70;;;7.80;99.90;;;;;;7044160;27;20395;-66
2020/12/19 15:56:39;;;;;;;14.25;11.05;;;7.80;99.90;;;;;;7038487;27;20411;-66
2020/12/19 16:00:11;;;;;;;15.02;10.70;;;7.90;99.90;;;;;;7021571;27;20477;-66
2020/12/19 16:03:33;;;;;;;15.30;10.77;;;7.80;99.90;;;;;;7060355;27;20412;-66
2020/12/19 16:06:54;;;;;;;15.63;10.93;;;7.70;99.90;;;;;;7043376;27;20457;-64
2020/12/19 16:10:15;;;;;;;14.30;10.88;;;7.70;99.90;;;;;;7050961;27;20394;-65
2020/12/19 16:13:37;;;;;;;14.98;11.20;;;7.70;99.90;;;;;;7051534;27;20442;-66
2020/12/19 16:16:58;;;;;;;14.52;10.40;;;7.60;99.90;;;;;;7037006;27;20389;-67
2020/12/19 16:20:19;;;;;;;14.38;10.80;;;7.60;99.90;;;;;;7032932;27;20410;-67
2020/12/19 16:23:45;;;;;;;17.38;11.45;;;7.60;99.90;;;;;;7053510;27;20383;-66
2020/12/19 16:27:06;;;;;;;15.43;11.30;;;7.40;99.90;;;;;;7032257;27;20519;-66
2020/12/19 16:30:26;;;;;;;14.60;10.90;;;7.40;99.90;;;;;;7049846;27;20418;-66
2020/12/19 16:33:47;;;;;;;15.07;11.20;;;7.40;99.90;;;;;;7066541;27;20460;-66
2020/12/19 16:37:09;;;;;;;15.30;11.00;;;7.40;99.90;;;;;;7062559;27;20398;-66
2020/12/19 16:40:30;;;;;;;15.40;10.93;;;7.30;99.90;;;;;;7020685;27;20969;-66
2020/12/19 16:43:53;;;;;;;15.25;11.32;;;7.30;99.90;;;;;;7033631;27;20431;-66
2020/12/19 16:47:14;;;;;;;15.23;10.65;;;7.20;99.90;;;;;;7034956;28;20409;-67
2020/12/19 16:50:35;;;;;;;14.85;11.20;;;7.10;99.90;;;;;;7052134;27;20946;-66
2020/12/19 16:53:57;;;;;;;15.25;11.00;;;7.10;99.90;;;;;;7046099;27;20822;-67
2020/12/19 16:57:18;;;;;;;13.82;10.45;;;7.00;99.90;;;;;;7049323;27;20434;-67
2020/12/19 17:00:39;;;;;;;14.57;11.18;;;7.10;99.90;;;;;;7059465;27;20479;-67
2020/12/19 17:04:00;;;;;;;15.60;10.80;;;7.00;99.90;;;;;;7039880;27;20770;-67
2020/12/19 17:07:21;;;;;;;15.30;11.00;;;7.10;99.90;;;;;;7051821;28;20415;-67
2020/12/19 17:10:41;;;;;;;13.33;10.37;;;6.90;99.90;;;;;;7038747;27;20433;-67
2020/12/19 17:14:03;;;;;;;14.87;10.90;;;7.00;99.90;;;;;;7049190;27;20399;-67